EGDY

RNAS Yeovilton

Airport
ICAO code
EGDY
IATA Code
YEO
Summary
ICAO Region
EUR
ICAO Territory
Location

, England

Serving
Yeovilton
Elevation
75 ft
Coordinates
51° 0' 34" N , 2° 38' 20" W
Metar
EGDY 230120Z AUTO 22011G21KT 9999 -RA OVC023/// 06/03 Q0985

Runways

Designator Length Width Surface Rops
4/22 1462 46 CON No/No
9/27 2310 46 CON No/No

Airport map

Aerial View

SKYbrary Partners:

Safety knowledge contributed by: